ASN logo
ASN Wikibase Occurrence # 212714
Last updated: 16 July 2018
This information is added by users of ASN. Neither ASN nor the Flight Safety Foundation are responsible for the completeness or correctness of this information. If you feel this information is incomplete or incorrect, you can submit corrected information.

Date:29-JUN-2018
Time:12:38 LT
Type:Silhouette image of generic B773 model; specific model in this crash may look slightly different
Boeing 777-3B5
Owner/operator:Korean Air
Registration: HL7573
C/n / msn: 27952/288
Fatalities:Fatalities: 0 / Occupants: 335
Other fatalities:0
Aircraft damage: Substantial
Category:Serious incident
Location:Tokyo-Narita Airport (NRT/RJAA) -   Japan
Phase: Landing
Nature:International Scheduled Passenger
Departure airport:Seoul-Incheon International Airport (ICN/RKSI)
Destination airport:Tokyo-Narita International Airport (NRT/RJAA)
Investigating agency: JTSB
Narrative:
Korean Air KE703 from Seoul (ICN) to Tokyo (NRT) suffered serious damage to the rear wheel axle of the right-hand main landing gear.
The Boeing 777-300 landed on runway 16L at 12:38 LT (03:38 UTC) and was stopped on taxiway B, five minutes later after it appeared the rear wheel axle had broken. The passengers disembarked on the taxiway and were bussed to the terminal, 1 hour and 40 minutes after the incident. The runway 16L/34R was closed for 20 minutes to clear the debris. A passenger stated that the Boeing was tilted during landing due to strong wind.

The weather at the time of the incident:
RJAA 290300Z 22017G28KT 180V240 9999 FEW030 32/23 Q1011 WS R16R WS R16L NOSIG RMK 2CU030 A2986
RJAA 290330Z 21014G24KT 180V250 9999 FEW030 31/22 Q1011 WS R16L NOSIG
RJAA 290400Z 22017G28KT 190V250 9999 FEW030 32/22 Q1011 WS R16R WS R16L NOSIG RMK 1CU030 A2986

Sources:

https://headlines.yahoo.co.jp/videonews/jnn?a=20180629-00000032-jnn-soci
https://www.asahi.com/articles/ASL6Y5KFBL6YUDCB01J.html
https://jp.reuters.com/article/idJP2018062901002281
https://headlines.yahoo.co.jp/hl?a=20180629-00000116-asahi-soci
https://www.flightradar24.com/data/flights/ke703#1cf0b5d5


Revision history:

Date/timeContributorUpdates
29-Jun-2018 10:43 harro Added
29-Jun-2018 10:47 harro Updated [Source, Embed code, Narrative]
29-Jun-2018 10:51 harro Updated [Source]
29-Jun-2018 12:36 harro Updated [Embed code]
29-Jun-2018 14:09 isamuel Updated [Destination airport, Source, Embed code, Narrative]
30-Jun-2018 19:07 harro Updated [Embed code]

Corrections or additions? ... Edit this accident description